Aérodrome :
LOGIN :

S'inscrire | Disclaimer

   EN    FR    IT 

 










Légende :    VFR   VFR Marginal   IFR   IFR Intensif   IFR Très Intensif
Visi : 
Plafond : 
>= 8 km
>= 3000ft
5 à 8 km
1000 à 3000 ft
1500m à 5 km
500 à 1000 ft
800 à 1500m
200 à 500 ft
< 800m
< 200 ft
Symboles :   Orages  Brouillard  Fortes neiges  Fortes précipitations  Vent > 20 kt
SIGMETs :   Divers  Orages  Givrage  Turbulence  Onde Orograph.  Cendres Volcan.






- Altitude de l'aérodrome : 616 ft
- Code IATA : PUF


LFBP - Pau

DERNIER METAR :
  • 140130Z AUTO 29015KT 6000 -RA FEW015/// SCT029/// BKN037/// ///TCU 09/08 Q1002 TEMPO 25015G25KT 4000 RA OVC008 FEW020CB

METARs EXPIRÉS :
  • 140100Z AUTO 31011KT 270V360 9999 -RA FEW020/// SCT026/// BKN044/// ///TCU 09/08 Q1002 TEMPO 25015G25KT 4000 RA OVC008 FEW020CB
  • 140030Z AUTO 12003KT 9999 BKN068/// OVC078/// ///CB 08/06 Q1001 TEMPO 25015G25KT 4000 RA OVC008
  • 140000Z AUTO 14007KT 9999 BKN058 BKN070 BKN084 08/06 Q1001 TEMPO 25015G25KT 4000 RA OVC008
  • 132330Z AUTO 14006KT 9999 FEW031 BKN052 BKN062 08/07 Q1002 TEMPO 25015G25KT 4000 RA OVC008
  • 132300Z AUTO 14005KT 7000 -RA FEW028 BKN050 BKN060 08/07 Q1002 TEMPO 25015G25KT 4000 RA OVC008

TAF AMD TAF LFBP
Valide du 14 à 00h jusqu'au 15 à 00h UTC


140038Z 1400/1424 25008KT 9999 BKN030
TEMPO 1400/1407 25015G25KT 4000 RA OVC008 FEW020CB
PROB30
TEMPO 1407/1409 4000 SHRA BKN020TCU
BECMG 1412/1414 VRB03KT SCT040
TEMPO 1419/1421 27015G25KT BKN020TCU



MET'MAP, la Météo Aéronautique d'un coup d'oeil ! - Copyright ORBIFLY Décembre 2007 - Disclaimer

ORBIFLY MET'MAP TEAM :

Programmation & Développement : Alexandra Zaïnal
Conception & Développement : Baudouin d'Aumeries
Co-Programmation & Développement : Marc-Olivier Méhu
Soutien technique & logistique : Manuel Goepfert

Contact : metmap@orbifly.com




SOURCES & CREDITS :

   NOAA